sensor_id;sensor_type;location;lat;lon;timestamp;pressure;altitude;pressure_sealevel;temperature;humidity
1480;BME280;732;51.698;4.886;2023-11-19T00:00:39;100982.41;;;9.21;97.90
1480;BME280;732;51.698;4.886;2023-11-19T00:03:18;101045.63;;;9.55;98.24
1480;BME280;732;51.698;4.886;2023-11-19T00:05:47;100958.84;;;9.08;97.65
1480;BME280;732;51.698;4.886;2023-11-19T00:08:17;100957.00;;;9.01;98.00
1480;BME280;732;51.698;4.886;2023-11-19T00:10:46;101002.97;;;9.29;98.69
1480;BME280;732;51.698;4.886;2023-11-19T00:13:14;101056.47;;;9.70;97.94
1480;BME280;732;51.698;4.886;2023-11-19T00:15:43;100906.38;;;8.83;97.28
1480;BME280;732;51.698;4.886;2023-11-19T00:18:12;100925.59;;;8.86;97.19
1480;BME280;732;51.698;4.886;2023-11-19T00:20:41;100953.50;;;9.00;97.95
1480;BME280;732;51.698;4.886;2023-11-19T00:23:11;100932.44;;;8.81;98.43
1480;BME280;732;51.698;4.886;2023-11-19T00:25:43;101026.41;;;9.43;98.23
1480;BME280;732;51.698;4.886;2023-11-19T00:28:12;100929.78;;;8.81;98.28
1480;BME280;732;51.698;4.886;2023-11-19T00:30:41;101004.19;;;9.10;98.57
1480;BME280;732;51.698;4.886;2023-11-19T00:33:09;100934.97;;;8.74;98.47
1480;BME280;732;51.698;4.886;2023-11-19T00:35:38;100951.19;;;8.81;98.33
1480;BME280;732;51.698;4.886;2023-11-19T00:38:06;101057.53;;;9.36;98.71
1480;BME280;732;51.698;4.886;2023-11-19T00:40:35;101044.66;;;9.23;98.50
1480;BME280;732;51.698;4.886;2023-11-19T00:43:04;100955.88;;;8.70;98.17
1480;BME280;732;51.698;4.886;2023-11-19T00:45:34;101054.88;;;9.45;98.04
1480;BME280;732;51.698;4.886;2023-11-19T00:48:03;101038.09;;;9.34;97.61
1480;BME280;732;51.698;4.886;2023-11-19T00:50:31;101073.78;;;9.43;97.15
1480;BME280;732;51.698;4.886;2023-11-19T00:53:04;101040.13;;;9.24;97.66
1480;BME280;732;51.698;4.886;2023-11-19T00:55:33;101013.72;;;9.04;97.35
1480;BME280;732;51.698;4.886;2023-11-19T00:58:14;100966.75;;;8.85;97.14
1480;BME280;732;51.698;4.886;2023-11-19T01:00:44;100955.88;;;8.70;96.96
1480;BME280;732;51.698;4.886;2023-11-19T01:03:13;101036.47;;;9.25;96.86
1480;BME280;732;51.698;4.886;2023-11-19T01:05:42;100898.72;;;8.38;96.78
1480;BME280;732;51.698;4.886;2023-11-19T01:08:11;100971.75;;;8.97;96.57
1480;BME280;732;51.698;4.886;2023-11-19T01:10:40;100875.16;;;8.34;96.42
1480;BME280;732;51.698;4.886;2023-11-19T01:13:08;101024.44;;;9.21;96.98
1480;BME280;732;51.698;4.886;2023-11-19T01:15:38;100962.53;;;8.91;96.66
1480;BME280;732;51.698;4.886;2023-11-19T01:18:08;100870.31;;;8.21;96.66
1480;BME280;732;51.698;4.886;2023-11-19T01:20:37;101005.69;;;9.04;96.89
1480;BME280;732;51.698;4.886;2023-11-19T01:23:06;100911.59;;;8.43;96.53
1480;BME280;732;51.698;4.886;2023-11-19T01:25:35;101029.28;;;9.17;96.34
1480;BME280;732;51.698;4.886;2023-11-19T01:28:05;100998.16;;;8.83;96.52
1480;BME280;732;51.698;4.886;2023-11-19T01:30:34;100989.97;;;8.76;97.01
1480;BME280;732;51.698;4.886;2023-11-19T01:33:03;100887.34;;;8.11;96.10
1480;BME280;732;51.698;4.886;2023-11-19T01:35:34;101048.69;;;9.03;96.18
1480;BME280;732;51.698;4.886;2023-11-19T01:38:03;101046.00;;;8.94;95.92
1480;BME280;732;51.698;4.886;2023-11-19T01:40:31;100867.88;;;7.68;95.87
1480;BME280;732;51.698;4.886;2023-11-19T01:43:00;101035.47;;;8.76;96.20
1480;BME280;732;51.698;4.886;2023-11-19T01:45:30;100992.81;;;8.58;95.36
1480;BME280;732;51.698;4.886;2023-11-19T01:48:04;101010.69;;;8.58;95.84
1480;BME280;732;51.698;4.886;2023-11-19T01:50:33;101004.69;;;8.48;95.77
1480;BME280;732;51.698;4.886;2023-11-19T01:53:02;100930.00;;;7.95;95.86
1480;BME280;732;51.698;4.886;2023-11-19T01:55:31;100999.66;;;8.53;95.61
1480;BME280;732;51.698;4.886;2023-11-19T01:58:01;101011.84;;;8.39;96.48
1480;BME280;732;51.698;4.886;2023-11-19T02:00:31;100898.72;;;7.62;97.25
1480;BME280;732;51.698;4.886;2023-11-19T02:03:01;100903.03;;;7.55;96.90
1480;BME280;732;51.698;4.886;2023-11-19T02:05:32;101026.53;;;8.26;97.00
1480;BME280;732;51.698;4.886;2023-11-19T02:08:01;100930.09;;;7.69;96.80
1480;BME280;732;51.698;4.886;2023-11-19T02:10:30;100950.19;;;7.73;97.39
1480;BME280;732;51.698;4.886;2023-11-19T02:13:01;101031.66;;;8.20;97.43
1480;BME280;732;51.698;4.886;2023-11-19T02:15:33;101037.88;;;8.28;97.44
1480;BME280;732;51.698;4.886;2023-11-19T02:18:21;101015.28;;;8.06;97.51
1480;BME280;732;51.698;4.886;2023-11-19T02:20:51;101015.41;;;8.05;97.68
1480;BME280;732;51.698;4.886;2023-11-19T02:23:20;101014.06;;;8.01;97.19
1480;BME280;732;51.698;4.886;2023-11-19T02:26:02;100899.13;;;7.33;96.76
1480;BME280;732;51.698;4.886;2023-11-19T02:28:36;101028.31;;;8.09;96.32
1480;BME280;732;51.698;4.886;2023-11-19T02:31:05;100939.41;;;7.56;96.12
1480;BME280;732;51.698;4.886;2023-11-19T02:33:37;101032.66;;;8.10;95.67
1480;BME280;732;51.698;4.886;2023-11-19T02:36:08;101034.47;;;8.10;95.66
1480;BME280;732;51.698;4.886;2023-11-19T02:38:37;101010.72;;;7.98;95.58
1480;BME280;732;51.698;4.886;2023-11-19T02:41:06;101008.66;;;7.92;95.45
1480;BME280;732;51.698;4.886;2023-11-19T02:43:38;100958.97;;;7.65;95.13
1480;BME280;732;51.698;4.886;2023-11-19T02:46:06;100978.41;;;7.75;95.11
1480;BME280;732;51.698;4.886;2023-11-19T02:48:38;100968.78;;;7.56;95.60
1480;BME280;732;51.698;4.886;2023-11-19T02:51:07;100940.34;;;7.39;95.29
1480;BME280;732;51.698;4.886;2023-11-19T02:53:38;101030.19;;;7.91;95.35
1480;BME280;732;51.698;4.886;2023-11-19T02:56:08;100890.13;;;7.08;95.17
1480;BME280;732;51.698;4.886;2023-11-19T02:58:48;100931.41;;;7.22;95.83
1480;BME280;732;51.698;4.886;2023-11-19T03:01:22;100987.97;;;7.52;95.75
1480;BME280;732;51.698;4.886;2023-11-19T03:03:58;100912.97;;;7.02;95.39
1480;BME280;732;51.698;4.886;2023-11-19T03:06:29;100851.22;;;6.62;94.94
1480;BME280;732;51.698;4.886;2023-11-19T03:08:57;101036.47;;;7.73;95.11
1480;BME280;732;51.698;4.886;2023-11-19T03:11:26;101043.28;;;7.68;94.87
1480;BME280;732;51.698;4.886;2023-11-19T03:13:55;100921.13;;;7.00;94.15
1480;BME280;732;51.698;4.886;2023-11-19T03:16:24;101028.31;;;7.48;94.50
1480;BME280;732;51.698;4.886;2023-11-19T03:18:52;100861.97;;;6.52;94.32
1480;BME280;732;51.698;4.886;2023-11-19T03:21:28;101029.81;;;7.51;94.43
1480;BME280;732;51.698;4.886;2023-11-19T03:23:57;100907.16;;;6.80;94.13
1480;BME280;732;51.698;4.886;2023-11-19T03:26:27;101027.03;;;7.53;93.69
1480;BME280;732;51.698;4.886;2023-11-19T03:28:57;101016.47;;;7.51;93.37
1480;BME280;732;51.698;4.886;2023-11-19T03:31:25;100994.75;;;7.38;92.75
1480;BME280;732;51.698;4.886;2023-11-19T03:33:54;100961.44;;;7.24;92.52
1480;BME280;732;51.698;4.886;2023-11-19T03:36:31;100904.16;;;6.83;92.80
1480;BME280;732;51.698;4.886;2023-11-19T03:38:59;100837.25;;;6.42;92.78
1480;BME280;732;51.698;4.886;2023-11-19T03:41:28;100912.38;;;6.90;93.15
1480;BME280;732;51.698;4.886;2023-11-19T03:44:09;100864.53;;;6.62;93.72
1480;BME280;732;51.698;4.886;2023-11-19T03:46:38;100882.94;;;6.74;94.04
1480;BME280;732;51.698;4.886;2023-11-19T03:49:06;100955.56;;;7.20;93.89
1480;BME280;732;51.698;4.886;2023-11-19T03:51:37;100959.41;;;6.91;94.28
1480;BME280;732;51.698;4.886;2023-11-19T03:54:06;100930.75;;;6.93;94.32
1480;BME280;732;51.698;4.886;2023-11-19T03:56:35;101021.16;;;7.49;94.21
1480;BME280;732;51.698;4.886;2023-11-19T03:59:04;101027.84;;;7.53;94.14
1480;BME280;732;51.698;4.886;2023-11-19T04:01:34;100895.00;;;6.60;94.18
1480;BME280;732;51.698;4.886;2023-11-19T04:04:04;100964.69;;;7.09;93.94
1480;BME280;732;51.698;4.886;2023-11-19T04:06:33;100898.41;;;6.70;93.97
1480;BME280;732;51.698;4.886;2023-11-19T04:09:01;100911.38;;;6.65;94.34
1480;BME280;732;51.698;4.886;2023-11-19T04:11:30;101023.88;;;7.31;94.24
1480;BME280;732;51.698;4.886;2023-11-19T04:13:59;100996.72;;;7.09;94.12
1480;BME280;732;51.698;4.886;2023-11-19T04:16:28;101000.19;;;7.28;93.62
1480;BME280;732;51.698;4.886;2023-11-19T04:19:00;100889.06;;;6.48;93.23
1480;BME280;732;51.698;4.886;2023-11-19T04:21:29;100983.47;;;6.99;92.97
1480;BME280;732;51.698;4.886;2023-11-19T04:23:57;100962.47;;;6.78;92.75
1480;BME280;732;51.698;4.886;2023-11-19T04:26:26;100920.34;;;6.64;92.57
1480;BME280;732;51.698;4.886;2023-11-19T04:28:57;100988.22;;;7.14;92.25
1480;BME280;732;51.698;4.886;2023-11-19T04:31:29;100964.44;;;6.94;92.53
1480;BME280;732;51.698;4.886;2023-11-19T04:34:00;101034.00;;;7.27;92.96
1480;BME280;732;51.698;4.886;2023-11-19T04:36:28;100949.06;;;6.70;92.93
1480;BME280;732;51.698;4.886;2023-11-19T04:38:57;101046.00;;;7.23;92.75
1480;BME280;732;51.698;4.886;2023-11-19T04:41:26;101056.84;;;7.22;93.00
1480;BME280;732;51.698;4.886;2023-11-19T04:43:55;101029.13;;;6.96;93.13
1480;BME280;732;51.698;4.886;2023-11-19T04:46:24;100978.41;;;6.70;92.15
1480;BME280;732;51.698;4.886;2023-11-19T04:48:52;100951.94;;;6.50;92.15
1480;BME280;732;51.698;4.886;2023-11-19T04:51:22;100945.13;;;6.56;91.52
1480;BME280;732;51.698;4.886;2023-11-19T04:53:51;101019.97;;;6.99;91.48
1480;BME280;732;51.698;4.886;2023-11-19T04:56:19;101056.53;;;7.25;91.41
1480;BME280;732;51.698;4.886;2023-11-19T04:58:50;100958.38;;;6.66;91.31
1480;BME280;732;51.698;4.886;2023-11-19T05:01:18;100988.69;;;6.83;91.38
1480;BME280;732;51.698;4.886;2023-11-19T05:03:46;101067.66;;;7.20;91.59
1480;BME280;732;51.698;4.886;2023-11-19T05:06:15;100952.97;;;6.58;91.84
1480;BME280;732;51.698;4.886;2023-11-19T05:08:44;101023.31;;;7.01;91.87
1480;BME280;732;51.698;4.886;2023-11-19T05:11:13;101024.84;;;7.04;91.72
1480;BME280;732;51.698;4.886;2023-11-19T05:13:45;101049.13;;;7.19;91.88
1480;BME280;732;51.698;4.886;2023-11-19T05:16:13;101058.91;;;7.10;92.37
1480;BME280;732;51.698;4.886;2023-11-19T05:18:42;101024.03;;;7.03;92.21
1480;BME280;732;51.698;4.886;2023-11-19T05:21:11;101037.88;;;7.07;91.91
1480;BME280;732;51.698;4.886;2023-11-19T05:23:39;101053.31;;;7.21;92.07
1480;BME280;732;51.698;4.886;2023-11-19T05:26:17;101054.19;;;7.04;92.27
1480;BME280;732;51.698;4.886;2023-11-19T05:28:46;100979.34;;;6.61;92.22
1480;BME280;732;51.698;4.886;2023-11-19T05:31:16;101049.38;;;7.07;92.05
1480;BME280;732;51.698;4.886;2023-11-19T05:33:45;100979.09;;;6.72;91.90
1480;BME280;732;51.698;4.886;2023-11-19T05:36:14;101065.31;;;7.17;91.97
1480;BME280;732;51.698;4.886;2023-11-19T05:38:42;100962.72;;;6.49;91.96
1480;BME280;732;51.698;4.886;2023-11-19T05:41:13;101056.03;;;7.03;92.09
1480;BME280;732;51.698;4.886;2023-11-19T05:43:42;100882.31;;;6.17;91.28
1480;BME280;732;51.698;4.886;2023-11-19T05:46:10;100922.41;;;6.34;91.07
1480;BME280;732;51.698;4.886;2023-11-19T05:48:43;101060.59;;;7.11;91.52
1480;BME280;732;51.698;4.886;2023-11-19T05:51:15;101047.50;;;6.99;92.10
1480;BME280;732;51.698;4.886;2023-11-19T05:53:46;101045.03;;;7.06;91.92
1480;BME280;732;51.698;4.886;2023-11-19T05:56:16;100953.81;;;6.40;92.71
1480;BME280;732;51.698;4.886;2023-11-19T05:58:48;101021.59;;;6.74;92.92
1480;BME280;732;51.698;4.886;2023-11-19T06:01:17;101054.75;;;6.89;93.16
1480;BME280;732;51.698;4.886;2023-11-19T06:03:46;101037.53;;;6.83;93.19
1480;BME280;732;51.698;4.886;2023-11-19T06:06:17;101051.84;;;7.00;92.30
1480;BME280;732;51.698;4.886;2023-11-19T06:08:45;101048.09;;;6.93;92.22
1480;BME280;732;51.698;4.886;2023-11-19T06:11:15;101052.66;;;7.01;91.92
1480;BME280;732;51.698;4.886;2023-11-19T06:13:47;101019.16;;;6.80;91.70
1480;BME280;732;51.698;4.886;2023-11-19T06:16:17;100883.75;;;5.94;91.82
1480;BME280;732;51.698;4.886;2023-11-19T06:18:46;101015.59;;;6.72;91.77
1480;BME280;732;51.698;4.886;2023-11-19T06:21:14;100918.31;;;6.03;91.73
1480;BME280;732;51.698;4.886;2023-11-19T06:23:43;100996.91;;;6.54;91.67
1480;BME280;732;51.698;4.886;2023-11-19T06:26:11;100988.63;;;6.57;91.76
1480;BME280;732;51.698;4.886;2023-11-19T06:28:45;101001.81;;;6.58;91.53
1480;BME280;732;51.698;4.886;2023-11-19T06:31:13;100928.53;;;6.08;91.86
1480;BME280;732;51.698;4.886;2023-11-19T06:33:43;100871.69;;;5.71;91.56
1480;BME280;732;51.698;4.886;2023-11-19T06:36:14;101035.00;;;6.64;91.72
1480;BME280;732;51.698;4.886;2023-11-19T06:38:43;101025.56;;;6.70;91.66
1480;BME280;732;51.698;4.886;2023-11-19T06:41:12;101020.22;;;6.70;91.22
1480;BME280;732;51.698;4.886;2023-11-19T06:43:41;100965.91;;;6.34;91.50
1480;BME280;732;51.698;4.886;2023-11-19T06:46:17;100988.63;;;6.39;91.44
1480;BME280;732;51.698;4.886;2023-11-19T06:48:45;100986.53;;;6.32;91.45
1480;BME280;732;51.698;4.886;2023-11-19T06:51:14;100981.81;;;6.26;91.70
1480;BME280;732;51.698;4.886;2023-11-19T06:53:43;101092.53;;;6.84;91.52
1480;BME280;732;51.698;4.886;2023-11-19T06:56:20;101052.91;;;6.54;91.87
1480;BME280;732;51.698;4.886;2023-11-19T06:58:51;101092.00;;;6.81;91.65
1480;BME280;732;51.698;4.886;2023-11-19T07:01:19;101091.59;;;6.94;90.87
1480;BME280;732;51.698;4.886;2023-11-19T07:03:48;100988.97;;;6.26;90.19
1480;BME280;732;51.698;4.886;2023-11-19T07:06:18;101089.72;;;6.86;90.20
1480;BME280;732;51.698;4.886;2023-11-19T07:09:00;101106.56;;;6.87;90.89
1480;BME280;732;51.698;4.886;2023-11-19T07:11:37;101011.22;;;6.34;90.70
1480;BME280;732;51.698;4.886;2023-11-19T07:14:08;101078.91;;;6.70;90.68
1480;BME280;732;51.698;4.886;2023-11-19T07:16:37;101118.22;;;6.86;90.66
1480;BME280;732;51.698;4.886;2023-11-19T07:19:06;101113.94;;;6.93;90.55
1480;BME280;732;51.698;4.886;2023-11-19T07:21:35;101074.00;;;6.65;90.57
1480;BME280;732;51.698;4.886;2023-11-19T07:24:07;101119.81;;;6.78;90.96
1480;BME280;732;51.698;4.886;2023-11-19T07:26:35;101098.91;;;6.74;91.14
1480;BME280;732;51.698;4.886;2023-11-19T07:29:04;101044.59;;;6.39;90.98
1480;BME280;732;51.698;4.886;2023-11-19T07:31:36;101026.28;;;6.26;91.08
1480;BME280;732;51.698;4.886;2023-11-19T07:34:05;101017.41;;;6.25;90.40
1480;BME280;732;51.698;4.886;2023-11-19T07:36:33;101104.88;;;6.86;90.58
1480;BME280;732;51.698;4.886;2023-11-19T07:39:03;101069.22;;;6.68;89.53
1480;BME280;732;51.698;4.886;2023-11-19T07:41:32;101094.50;;;6.82;89.73
1480;BME280;732;51.698;4.886;2023-11-19T07:44:05;101113.88;;;7.03;89.73
1480;BME280;732;51.698;4.886;2023-11-19T07:46:33;101039.56;;;6.54;89.17
1480;BME280;732;51.698;4.886;2023-11-19T07:49:03;101019.69;;;6.48;89.22
1480;BME280;732;51.698;4.886;2023-11-19T07:51:32;101014.88;;;6.51;88.85
1480;BME280;732;51.698;4.886;2023-11-19T07:54:00;101037.66;;;6.64;89.17
1480;BME280;732;51.698;4.886;2023-11-19T07:56:28;101052.38;;;6.86;88.54
1480;BME280;732;51.698;4.886;2023-11-19T07:58:57;101058.84;;;7.02;88.34
1480;BME280;732;51.698;4.886;2023-11-19T08:01:25;101071.72;;;7.24;87.23
1480;BME280;732;51.698;4.886;2023-11-19T08:03:54;101067.44;;;7.31;86.73
1480;BME280;732;51.698;4.886;2023-11-19T08:06:27;101116.16;;;7.60;86.59
1480;BME280;732;51.698;4.886;2023-11-19T08:08:55;101116.13;;;7.52;86.72
1480;BME280;732;51.698;4.886;2023-11-19T08:11:24;101102.34;;;7.38;86.74
1480;BME280;732;51.698;4.886;2023-11-19T08:13:52;101102.16;;;7.40;86.81
1480;BME280;732;51.698;4.886;2023-11-19T08:16:20;101034.25;;;6.90;87.05
1480;BME280;732;51.698;4.886;2023-11-19T08:18:49;101098.84;;;7.20;87.51
1480;BME280;732;51.698;4.886;2023-11-19T08:21:17;101027.31;;;6.97;87.19
1480;BME280;732;51.698;4.886;2023-11-19T08:23:47;101125.16;;;7.59;86.52
1480;BME280;732;51.698;4.886;2023-11-19T08:26:16;101124.03;;;7.61;86.25
1480;BME280;732;51.698;4.886;2023-11-19T08:28:48;101032.31;;;7.00;86.20
1480;BME280;732;51.698;4.886;2023-11-19T08:31:16;101131.34;;;7.59;86.25
1480;BME280;732;51.698;4.886;2023-11-19T08:33:44;101038.78;;;7.15;85.50
1480;BME280;732;51.698;4.886;2023-11-19T08:36:16;101065.84;;;7.47;85.33
1480;BME280;732;51.698;4.886;2023-11-19T08:38:45;101131.47;;;7.76;85.71
1480;BME280;732;51.698;4.886;2023-11-19T08:41:16;101117.03;;;7.95;85.62
1480;BME280;732;51.698;4.886;2023-11-19T08:43:45;101108.38;;;7.93;84.57
1480;BME280;732;51.698;4.886;2023-11-19T08:46:14;101137.63;;;8.29;83.95
1480;BME280;732;51.698;4.886;2023-11-19T08:48:42;101108.53;;;8.26;82.80
1480;BME280;732;51.698;4.886;2023-11-19T08:51:10;101133.47;;;8.35;82.51
1480;BME280;732;51.698;4.886;2023-11-19T08:53:39;101107.44;;;8.02;82.21
1480;BME280;732;51.698;4.886;2023-11-19T08:56:08;101119.16;;;8.09;83.46
1480;BME280;732;51.698;4.886;2023-11-19T08:58:38;101133.84;;;8.05;83.66
1480;BME280;732;51.698;4.886;2023-11-19T09:01:07;101092.59;;;7.81;83.51
1480;BME280;732;51.698;4.886;2023-11-19T09:03:36;101105.44;;;7.78;83.89
1480;BME280;732;51.698;4.886;2023-11-19T09:06:06;101084.91;;;7.78;84.15
1480;BME280;732;51.698;4.886;2023-11-19T09:08:34;101097.25;;;7.97;84.31
1480;BME280;732;51.698;4.886;2023-11-19T09:11:07;101101.25;;;8.02;83.99
1480;BME280;732;51.698;4.886;2023-11-19T09:13:38;101095.75;;;8.03;84.21
1480;BME280;732;51.698;4.886;2023-11-19T09:16:07;101084.00;;;7.96;83.72
1480;BME280;732;51.698;4.886;2023-11-19T09:18:36;101063.50;;;7.96;83.11
1480;BME280;732;51.698;4.886;2023-11-19T09:21:05;101106.19;;;8.23;83.27
1480;BME280;732;51.698;4.886;2023-11-19T09:23:34;100934.16;;;7.38;82.84
1480;BME280;732;51.698;4.886;2023-11-19T09:26:08;101064.28;;;8.40;82.10
1480;BME280;732;51.698;4.886;2023-11-19T09:28:39;101016.13;;;8.15;81.86
1480;BME280;732;51.698;4.886;2023-11-19T09:31:13;101082.75;;;8.68;81.65
1480;BME280;732;51.698;4.886;2023-11-19T09:33:42;101033.72;;;8.34;80.62
1480;BME280;732;51.698;4.886;2023-11-19T09:36:12;101078.44;;;8.91;80.23
1480;BME280;732;51.698;4.886;2023-11-19T09:38:41;101077.75;;;8.89;80.08
1480;BME280;732;51.698;4.886;2023-11-19T09:41:10;101114.09;;;9.00;79.78
1480;BME280;732;51.698;4.886;2023-11-19T09:43:42;101102.38;;;8.85;79.92
1480;BME280;732;51.698;4.886;2023-11-19T09:46:12;101116.41;;;8.78;80.22
1480;BME280;732;51.698;4.886;2023-11-19T09:48:43;101091.97;;;8.65;80.40
1480;BME280;732;51.698;4.886;2023-11-19T09:51:12;101087.44;;;8.66;80.70
1480;BME280;732;51.698;4.886;2023-11-19T09:53:41;101080.44;;;8.73;80.05
1480;BME280;732;51.698;4.886;2023-11-19T09:56:11;101030.22;;;8.34;79.03
1480;BME280;732;51.698;4.886;2023-11-19T09:58:43;101090.81;;;8.84;79.77
1480;BME280;732;51.698;4.886;2023-11-19T10:01:11;101114.25;;;9.07;79.02
1480;BME280;732;51.698;4.886;2023-11-19T10:03:43;101123.28;;;8.98;79.04
1480;BME280;732;51.698;4.886;2023-11-19T10:06:15;101075.25;;;8.79;79.68
1480;BME280;732;51.698;4.886;2023-11-19T10:08:45;101090.97;;;8.83;79.81
1480;BME280;732;51.698;4.886;2023-11-19T10:11:13;101105.06;;;9.01;79.94
1480;BME280;732;51.698;4.886;2023-11-19T10:13:44;101054.69;;;8.72;79.30
1480;BME280;732;51.698;4.886;2023-11-19T10:16:15;101103.53;;;9.07;79.47
1480;BME280;732;51.698;4.886;2023-11-19T10:18:45;101099.69;;;9.18;79.97
1480;BME280;732;51.698;4.886;2023-11-19T10:21:14;101107.56;;;9.27;79.25
1480;BME280;732;51.698;4.886;2023-11-19T10:23:52;101096.34;;;9.16;79.08
1480;BME280;732;51.698;4.886;2023-11-19T10:26:21;101071.44;;;9.23;79.46
1480;BME280;732;51.698;4.886;2023-11-19T10:28:51;101084.81;;;9.32;78.81
1480;BME280;732;51.698;4.886;2023-11-19T10:31:20;101017.06;;;9.06;78.38
1480;BME280;732;51.698;4.886;2023-11-19T10:33:52;101009.88;;;8.90;78.14
1480;BME280;732;51.698;4.886;2023-11-19T10:36:21;101099.53;;;9.61;78.65
1480;BME280;732;51.698;4.886;2023-11-19T10:38:55;101003.00;;;9.13;77.38
1480;BME280;732;51.698;4.886;2023-11-19T10:41:28;101078.44;;;9.57;77.28
1480;BME280;732;51.698;4.886;2023-11-19T10:43:59;101105.84;;;9.84;77.29
1480;BME280;732;51.698;4.886;2023-11-19T10:46:38;101086.13;;;9.61;76.00
1480;BME280;732;51.698;4.886;2023-11-19T10:49:08;101062.38;;;9.49;76.84
1480;BME280;732;51.698;4.886;2023-11-19T10:51:42;101079.59;;;9.71;76.18
1480;BME280;732;51.698;4.886;2023-11-19T10:54:16;101087.97;;;9.60;76.69
1480;BME280;732;51.698;4.886;2023-11-19T10:56:52;101090.19;;;9.23;77.15
1480;BME280;732;51.698;4.886;2023-11-19T10:59:24;101091.00;;;9.16;77.92
1480;BME280;732;51.698;4.886;2023-11-19T11:02:03;101057.38;;;8.97;77.67
1480;BME280;732;51.698;4.886;2023-11-19T11:04:40;101013.72;;;8.88;77.45
1480;BME280;732;51.698;4.886;2023-11-19T11:07:09;101011.88;;;8.88;77.21
1480;BME280;732;51.698;4.886;2023-11-19T11:09:38;101034.78;;;9.16;76.30
1480;BME280;732;51.698;4.886;2023-11-19T11:12:09;101107.41;;;9.46;76.33
1480;BME280;732;51.698;4.886;2023-11-19T11:14:40;101040.13;;;8.91;77.38
1480;BME280;732;51.698;4.886;2023-11-19T11:17:11;101023.25;;;8.82;78.06
1480;BME280;732;51.698;4.886;2023-11-19T11:19:42;100985.78;;;8.33;79.94
1480;BME280;732;51.698;4.886;2023-11-19T11:22:11;101014.31;;;8.32;81.70
1480;BME280;732;51.698;4.886;2023-11-19T11:25:08;101079.38;;;8.49;82.34
1480;BME280;732;51.698;4.886;2023-11-19T11:30:49;101026.34;;;8.28;82.29
1480;BME280;732;51.698;4.886;2023-11-19T11:33:36;101076.75;;;8.57;83.59
1480;BME280;732;51.698;4.886;2023-11-19T11:36:17;101021.81;;;8.28;82.62
1480;BME280;732;51.698;4.886;2023-11-19T11:38:48;101065.53;;;8.54;82.13
1480;BME280;732;51.698;4.886;2023-11-19T11:41:21;101086.94;;;8.70;82.56
1480;BME280;732;51.698;4.886;2023-11-19T11:43:54;100980.91;;;8.28;82.17
1480;BME280;732;51.698;4.886;2023-11-19T11:46:56;101075.59;;;8.76;81.28
1480;BME280;732;51.698;4.886;2023-11-19T11:49:29;101055.69;;;8.79;81.21
1480;BME280;732;51.698;4.886;2023-11-19T11:52:00;101050.16;;;8.81;79.91
1480;BME280;732;51.698;4.886;2023-11-19T11:54:28;101031.13;;;8.84;79.03
1480;BME280;732;51.698;4.886;2023-11-19T11:57:08;101021.09;;;8.94;79.35
1480;BME280;732;51.698;4.886;2023-11-19T11:59:50;101047.31;;;9.32;79.08
1480;BME280;732;51.698;4.886;2023-11-19T12:02:22;100991.47;;;9.04;79.05
1480;BME280;732;51.698;4.886;2023-11-19T12:04:52;101048.84;;;9.51;78.97
1480;BME280;732;51.698;4.886;2023-11-19T12:07:23;100954.31;;;9.09;78.27
1480;BME280;732;51.698;4.886;2023-11-19T12:09:56;101040.06;;;9.65;78.42
1480;BME280;732;51.698;4.886;2023-11-19T12:12:34;100969.69;;;9.40;78.41
1480;BME280;732;51.698;4.886;2023-11-19T12:15:07;101037.53;;;10.20;77.56
1480;BME280;732;51.698;4.886;2023-11-19T12:17:51;101036.16;;;9.84;76.66
1480;BME280;732;51.698;4.886;2023-11-19T12:20:22;101031.13;;;9.89;78.16
1480;BME280;732;51.698;4.886;2023-11-19T12:22:54;101025.09;;;9.87;77.10
1480;BME280;732;51.698;4.886;2023-11-19T12:25:22;101052.03;;;9.94;77.37
1480;BME280;732;51.698;4.886;2023-11-19T12:27:52;101032.16;;;9.88;77.61
1480;BME280;732;51.698;4.886;2023-11-19T12:30:22;101036.38;;;10.14;76.68
1480;BME280;732;51.698;4.886;2023-11-19T12:32:54;101047.78;;;10.08;76.36
1480;BME280;732;51.698;4.886;2023-11-19T12:35:23;101037.03;;;10.16;76.21
1480;BME280;732;51.698;4.886;2023-11-19T12:37:52;100960.06;;;9.62;76.41
1480;BME280;732;51.698;4.886;2023-11-19T12:40:23;101002.72;;;9.72;77.18
1480;BME280;732;51.698;4.886;2023-11-19T12:42:52;101009.06;;;9.79;77.41
1480;BME280;732;51.698;4.886;2023-11-19T12:45:22;100967.50;;;9.43;77.55
1480;BME280;732;51.698;4.886;2023-11-19T12:48:07;100973.06;;;9.17;81.59
1480;BME280;732;51.698;4.886;2023-11-19T12:50:50;101039.47;;;9.05;84.38
1480;BME280;732;51.698;4.886;2023-11-19T12:53:20;100908.03;;;8.09;86.97
1480;BME280;732;51.698;4.886;2023-11-19T12:55:48;101050.69;;;8.92;87.23
1480;BME280;732;51.698;4.886;2023-11-19T12:58:30;101009.38;;;8.54;86.64
1480;BME280;732;51.698;4.886;2023-11-19T13:01:02;101006.44;;;8.22;87.62
1480;BME280;732;51.698;4.886;2023-11-19T13:03:34;100990.84;;;8.01;88.64
1480;BME280;732;51.698;4.886;2023-11-19T13:06:04;101000.59;;;8.10;88.62
1480;BME280;732;51.698;4.886;2023-11-19T13:08:39;101040.78;;;8.68;90.34
1480;BME280;732;51.698;4.886;2023-11-19T13:11:08;100919.09;;;8.23;88.21
1480;BME280;732;51.698;4.886;2023-11-19T13:13:56;101032.47;;;8.96;86.35
1480;BME280;732;51.698;4.886;2023-11-19T13:16:27;101050.34;;;8.95;84.37
1480;BME280;732;51.698;4.886;2023-11-19T13:18:58;100931.78;;;8.12;84.77
1480;BME280;732;51.698;4.886;2023-11-19T13:21:27;101010.38;;;8.69;84.57
1480;BME280;732;51.698;4.886;2023-11-19T13:23:56;100912.41;;;8.19;83.66
1480;BME280;732;51.698;4.886;2023-11-19T13:26:25;100919.94;;;8.32;83.48
1480;BME280;732;51.698;4.886;2023-11-19T13:28:54;100963.06;;;8.70;83.84
1480;BME280;732;51.698;4.886;2023-11-19T13:31:22;100922.28;;;8.59;83.47
1480;BME280;732;51.698;4.886;2023-11-19T13:33:51;100911.56;;;8.59;83.50
1480;BME280;732;51.698;4.886;2023-11-19T13:36:21;100990.31;;;9.06;82.34
1480;BME280;732;51.698;4.886;2023-11-19T13:38:49;101024.41;;;9.29;82.19
1480;BME280;732;51.698;4.886;2023-11-19T13:41:18;100966.88;;;9.00;81.90
1480;BME280;732;51.698;4.886;2023-11-19T13:43:47;100915.41;;;8.82;81.89
1480;BME280;732;51.698;4.886;2023-11-19T13:46:15;100906.56;;;8.73;82.23
1480;BME280;732;51.698;4.886;2023-11-19T13:48:44;100884.50;;;8.38;81.65
1480;BME280;732;51.698;4.886;2023-11-19T13:51:12;100792.09;;;7.77;82.07
1480;BME280;732;51.698;4.886;2023-11-19T13:53:42;101001.00;;;8.98;82.18